sensor_id;sensor_type;location;lat;lon;timestamp;pressure;altitude;pressure_sealevel;temperature;humidity
22862;BME280;11598;50.652;6.172;2024-02-15T00:06:52;96713.31;;;8.92;100.00
22862;BME280;11598;50.652;6.172;2024-02-15T00:16:53;96714.88;;;8.95;100.00
22862;BME280;11598;50.652;6.172;2024-02-15T00:26:53;96717.28;;;8.98;100.00
22862;BME280;11598;50.652;6.172;2024-02-15T00:36:54;96708.59;;;8.99;100.00
22862;BME280;11598;50.652;6.172;2024-02-15T00:46:54;96712.00;;;8.99;100.00
22862;BME280;11598;50.652;6.172;2024-02-15T00:56:56;96724.97;;;8.99;100.00
22862;BME280;11598;50.652;6.172;2024-02-15T01:06:56;96717.19;;;8.99;100.00
22862;BME280;11598;50.652;6.172;2024-02-15T01:16:57;96711.19;;;8.99;100.00
22862;BME280;11598;50.652;6.172;2024-02-15T01:26:57;96712.91;;;8.98;100.00
22862;BME280;11598;50.652;6.172;2024-02-15T01:36:57;96701.94;;;8.95;100.00
22862;BME280;11598;50.652;6.172;2024-02-15T01:46:59;96690.63;;;8.96;100.00
22862;BME280;11598;50.652;6.172;2024-02-15T01:57:01;96691.47;;;8.96;100.00
22862;BME280;11598;50.652;6.172;2024-02-15T02:07:02;96683.78;;;8.95;100.00
22862;BME280;11598;50.652;6.172;2024-02-15T02:17:13;96658.09;;;8.92;100.00
22862;BME280;11598;50.652;6.172;2024-02-15T02:27:15;96652.66;;;8.82;100.00
22862;BME280;11598;50.652;6.172;2024-02-15T02:37:15;96629.16;;;8.85;100.00
22862;BME280;11598;50.652;6.172;2024-02-15T02:47:16;96625.09;;;8.81;100.00
22862;BME280;11598;50.652;6.172;2024-02-15T02:57:16;96620.69;;;8.68;100.00
22862;BME280;11598;50.652;6.172;2024-02-15T03:07:17;96596.41;;;8.57;100.00
22862;BME280;11598;50.652;6.172;2024-02-15T03:17:18;96583.25;;;8.47;100.00
22862;BME280;11598;50.652;6.172;2024-02-15T03:27:19;96574.25;;;8.38;100.00
22862;BME280;11598;50.652;6.172;2024-02-15T03:37:23;96571.97;;;8.34;100.00
22862;BME280;11598;50.652;6.172;2024-02-15T03:47:24;96583.53;;;8.28;100.00
22862;BME280;11598;50.652;6.172;2024-02-15T03:57:25;96584.56;;;8.25;100.00
22862;BME280;11598;50.652;6.172;2024-02-15T04:07:25;96575.22;;;8.23;100.00
22862;BME280;11598;50.652;6.172;2024-02-15T04:17:26;96575.63;;;8.17;100.00
22862;BME280;11598;50.652;6.172;2024-02-15T04:27:27;96574.06;;;8.14;100.00
22862;BME280;11598;50.652;6.172;2024-02-15T04:37:27;96573.13;;;8.15;100.00
22862;BME280;11598;50.652;6.172;2024-02-15T04:47:32;96576.53;;;8.16;100.00
22862;BME280;11598;50.652;6.172;2024-02-15T04:57:32;96584.13;;;8.19;100.00
22862;BME280;11598;50.652;6.172;2024-02-15T05:07:34;96570.91;;;8.23;100.00
22862;BME280;11598;50.652;6.172;2024-02-15T05:17:38;96566.25;;;8.29;100.00
22862;BME280;11598;50.652;6.172;2024-02-15T05:27:40;96553.09;;;8.32;100.00
22862;BME280;11598;50.652;6.172;2024-02-15T05:37:43;96551.91;;;8.37;100.00
22862;BME280;11598;50.652;6.172;2024-02-15T05:47:43;96546.59;;;8.39;100.00
22862;BME280;11598;50.652;6.172;2024-02-15T05:57:43;96543.13;;;8.40;100.00
22862;BME280;11598;50.652;6.172;2024-02-15T06:07:44;96537.00;;;8.41;100.00
22862;BME280;11598;50.652;6.172;2024-02-15T06:17:46;96540.59;;;8.38;100.00
22862;BME280;11598;50.652;6.172;2024-02-15T06:27:47;96540.69;;;8.37;100.00
22862;BME280;11598;50.652;6.172;2024-02-15T06:37:48;96537.28;;;8.36;100.00
22862;BME280;11598;50.652;6.172;2024-02-15T06:48:07;96537.38;;;8.35;100.00
22862;BME280;11598;50.652;6.172;2024-02-15T06:58:07;96546.06;;;8.34;100.00
22862;BME280;11598;50.652;6.172;2024-02-15T07:08:08;96543.69;;;8.31;100.00
22862;BME280;11598;50.652;6.172;2024-02-15T07:18:12;96544.72;;;8.28;100.00
22862;BME280;11598;50.652;6.172;2024-02-15T07:28:12;96538.69;;;8.27;100.00
22862;BME280;11598;50.652;6.172;2024-02-15T07:38:13;96541.94;;;8.31;100.00
22862;BME280;11598;50.652;6.172;2024-02-15T07:48:13;96547.84;;;8.33;100.00
22862;BME280;11598;50.652;6.172;2024-02-15T07:58:13;96551.91;;;8.37;100.00
22862;BME280;11598;50.652;6.172;2024-02-15T08:08:14;96553.91;;;8.46;100.00
22862;BME280;11598;50.652;6.172;2024-02-15T08:18:14;96544.41;;;8.60;100.00
22862;BME280;11598;50.652;6.172;2024-02-15T08:28:15;96552.84;;;8.76;100.00
22862;BME280;11598;50.652;6.172;2024-02-15T08:38:16;96549.34;;;8.90;100.00
22862;BME280;11598;50.652;6.172;2024-02-15T08:48:17;96532.97;;;9.02;100.00
22862;BME280;11598;50.652;6.172;2024-02-15T08:58:17;96531.25;;;9.16;100.00
22862;BME280;11598;50.652;6.172;2024-02-15T09:08:18;96525.84;;;9.31;100.00
22862;BME280;11598;50.652;6.172;2024-02-15T09:18:21;96506.22;;;9.53;100.00
22862;BME280;11598;50.652;6.172;2024-02-15T09:28:22;96504.63;;;9.76;100.00
22862;BME280;11598;50.652;6.172;2024-02-15T09:38:23;96496.47;;;9.93;100.00
22862;BME280;11598;50.652;6.172;2024-02-15T09:48:25;96500.28;;;10.01;100.00
22862;BME280;11598;50.652;6.172;2024-02-15T09:58:27;96509.50;;;10.05;100.00
22862;BME280;11598;50.652;6.172;2024-02-15T10:08:29;96506.59;;;10.09;100.00
22862;BME280;11598;50.652;6.172;2024-02-15T10:18:29;96509.25;;;10.21;100.00
22862;BME280;11598;50.652;6.172;2024-02-15T10:28:31;96502.38;;;10.32;100.00
22862;BME280;11598;50.652;6.172;2024-02-15T10:38:31;96506.53;;;10.46;100.00
22862;BME280;11598;50.652;6.172;2024-02-15T10:48:32;96489.44;;;10.55;100.00
22862;BME280;11598;50.652;6.172;2024-02-15T10:58:33;96493.19;;;10.75;100.00
22862;BME280;11598;50.652;6.172;2024-02-15T11:08:39;96479.63;;;10.94;100.00
22862;BME280;11598;50.652;6.172;2024-02-15T11:18:48;96471.38;;;11.11;100.00
22862;BME280;11598;50.652;6.172;2024-02-15T11:28:51;96466.06;;;11.24;100.00
22862;BME280;11598;50.652;6.172;2024-02-15T11:38:51;96450.22;;;11.27;100.00
22862;BME280;11598;50.652;6.172;2024-02-15T11:48:52;96441.47;;;11.28;100.00
22862;BME280;11598;50.652;6.172;2024-02-15T11:59:06;96428.25;;;11.31;100.00
22862;BME280;11598;50.652;6.172;2024-02-15T12:09:09;96413.44;;;11.32;100.00
22862;BME280;11598;50.652;6.172;2024-02-15T12:19:28;96397.38;;;11.27;100.00
22862;BME280;11598;50.652;6.172;2024-02-15T12:29:29;96388.53;;;11.18;100.00
22862;BME280;11598;50.652;6.172;2024-02-15T12:39:29;96369.72;;;11.14;100.00
22862;BME280;11598;50.652;6.172;2024-02-15T12:49:32;96359.66;;;11.21;100.00
22862;BME280;11598;50.652;6.172;2024-02-15T12:59:32;96341.34;;;11.23;100.00
22862;BME280;11598;50.652;6.172;2024-02-15T13:09:33;96328.25;;;11.24;100.00
22862;BME280;11598;50.652;6.172;2024-02-15T13:19:33;96301.44;;;11.12;100.00
22862;BME280;11598;50.652;6.172;2024-02-15T13:29:36;96289.47;;;11.10;100.00
22862;BME280;11598;50.652;6.172;2024-02-15T13:39:36;96282.84;;;11.17;100.00
22862;BME280;11598;50.652;6.172;2024-02-15T13:49:38;96262.88;;;11.17;100.00
22862;BME280;11598;50.652;6.172;2024-02-15T13:59:39;96251.28;;;11.21;100.00
22862;BME280;11598;50.652;6.172;2024-02-15T14:09:39;96238.97;;;11.24;100.00
22862;BME280;11598;50.652;6.172;2024-02-15T14:19:39;96228.00;;;11.20;100.00
22862;BME280;11598;50.652;6.172;2024-02-15T14:29:40;96231.78;;;11.16;100.00
22862;BME280;11598;50.652;6.172;2024-02-15T14:39:44;96213.34;;;11.19;100.00
22862;BME280;11598;50.652;6.172;2024-02-15T14:49:45;96196.53;;;11.23;100.00
22862;BME280;11598;50.652;6.172;2024-02-15T14:59:45;96198.81;;;11.16;100.00
22862;BME280;11598;50.652;6.172;2024-02-15T15:09:45;96181.94;;;11.11;100.00
22862;BME280;11598;50.652;6.172;2024-02-15T15:20:05;96178.28;;;11.13;100.00
22862;BME280;11598;50.652;6.172;2024-02-15T15:30:09;96155.06;;;11.21;100.00
22862;BME280;11598;50.652;6.172;2024-02-15T15:40:10;96128.94;;;11.23;100.00
22862;BME280;11598;50.652;6.172;2024-02-15T15:50:12;96104.66;;;11.13;100.00
22862;BME280;11598;50.652;6.172;2024-02-15T16:00:13;96090.75;;;11.03;100.00
22862;BME280;11598;50.652;6.172;2024-02-15T16:10:15;96094.69;;;10.97;100.00
22862;BME280;11598;50.652;6.172;2024-02-15T16:20:18;96069.06;;;10.92;100.00
22862;BME280;11598;50.652;6.172;2024-02-15T16:30:18;96066.41;;;10.83;100.00
22862;BME280;11598;50.652;6.172;2024-02-15T16:40:19;96041.28;;;10.72;100.00
22862;BME280;11598;50.652;6.172;2024-02-15T16:50:22;96039.44;;;10.63;100.00
22862;BME280;11598;50.652;6.172;2024-02-15T17:00:23;96037.97;;;10.49;100.00
22862;BME280;11598;50.652;6.172;2024-02-15T17:10:24;96009.25;;;10.50;100.00
22862;BME280;11598;50.652;6.172;2024-02-15T17:20:25;96015.16;;;10.52;100.00
22862;BME280;11598;50.652;6.172;2024-02-15T17:30:25;96018.72;;;10.51;100.00
22862;BME280;11598;50.652;6.172;2024-02-15T17:40:25;96002.97;;;10.53;100.00
22862;BME280;11598;50.652;6.172;2024-02-15T17:50:26;96007.25;;;10.54;100.00
22862;BME280;11598;50.652;6.172;2024-02-15T18:00:27;96007.00;;;10.57;100.00
22862;BME280;11598;50.652;6.172;2024-02-15T18:10:29;96003.69;;;10.55;100.00
22862;BME280;11598;50.652;6.172;2024-02-15T18:20:29;96013.16;;;10.56;100.00
22862;BME280;11598;50.652;6.172;2024-02-15T18:30:30;96011.09;;;10.60;100.00
22862;BME280;11598;50.652;6.172;2024-02-15T18:40:42;96002.75;;;10.56;100.00
22862;BME280;11598;50.652;6.172;2024-02-15T18:50:43;96012.31;;;10.55;100.00
22862;BME280;11598;50.652;6.172;2024-02-15T19:00:44;96006.91;;;10.47;100.00
22862;BME280;11598;50.652;6.172;2024-02-15T19:10:47;96025.84;;;10.38;100.00
22862;BME280;11598;50.652;6.172;2024-02-15T19:20:48;96014.31;;;10.31;100.00
22862;BME280;11598;50.652;6.172;2024-02-15T19:30:48;96025.63;;;10.30;100.00
22862;BME280;11598;50.652;6.172;2024-02-15T19:40:49;96009.94;;;10.31;100.00
22862;BME280;11598;50.652;6.172;2024-02-15T19:50:49;95994.09;;;10.34;100.00
22862;BME280;11598;50.652;6.172;2024-02-15T20:00:49;95992.72;;;10.30;100.00
22862;BME280;11598;50.652;6.172;2024-02-15T20:10:51;95999.44;;;10.22;100.00
22862;BME280;11598;50.652;6.172;2024-02-15T20:20:55;95996.25;;;10.18;100.00
22862;BME280;11598;50.652;6.172;2024-02-15T20:30:56;96004.38;;;10.13;100.00
22862;BME280;11598;50.652;6.172;2024-02-15T20:40:59;96003.38;;;10.05;100.00
22862;BME280;11598;50.652;6.172;2024-02-15T20:51:01;96003.41;;;9.93;100.00
22862;BME280;11598;50.652;6.172;2024-02-15T21:01:01;96001.88;;;9.80;100.00
22862;BME280;11598;50.652;6.172;2024-02-15T21:11:02;96007.06;;;9.68;100.00
22862;BME280;11598;50.652;6.172;2024-02-15T21:21:03;96017.81;;;9.64;100.00
22862;BME280;11598;50.652;6.172;2024-02-15T21:31:05;96008.16;;;9.55;100.00
22862;BME280;11598;50.652;6.172;2024-02-15T21:41:14;96006.06;;;9.48;100.00
22862;BME280;11598;50.652;6.172;2024-02-15T21:51:15;95999.69;;;9.52;100.00
22862;BME280;11598;50.652;6.172;2024-02-15T22:01:15;95993.19;;;9.58;100.00
22862;BME280;11598;50.652;6.172;2024-02-15T22:11:15;95987.75;;;9.61;100.00
22862;BME280;11598;50.652;6.172;2024-02-15T22:21:16;96000.38;;;9.66;100.00
22862;BME280;11598;50.652;6.172;2024-02-15T22:31:21;96011.34;;;9.69;100.00
22862;BME280;11598;50.652;6.172;2024-02-15T22:41:21;96014.75;;;9.70;100.00
22862;BME280;11598;50.652;6.172;2024-02-15T22:51:22;96007.78;;;9.70;100.00
22862;BME280;11598;50.652;6.172;2024-02-15T23:01:23;95999.06;;;9.71;100.00
22862;BME280;11598;50.652;6.172;2024-02-15T23:11:26;95999.53;;;9.77;100.00
22862;BME280;11598;50.652;6.172;2024-02-15T23:21:26;95986.44;;;9.78;100.00
22862;BME280;11598;50.652;6.172;2024-02-15T23:31:27;95999.38;;;9.89;100.00
22862;BME280;11598;50.652;6.172;2024-02-15T23:41:27;95982.16;;;10.00;100.00
22862;BME280;11598;50.652;6.172;2024-02-15T23:51:27;95990.84;;;10.10;100.00
